sensor_id;sensor_type;location;lat;lon;timestamp;P1;durP1;ratioP1;P2;durP2;ratioP2
5042;SDS011;2540;50.928;6.856;2022-09-01T00:00:49;2.77;;;2.47;;
5042;SDS011;2540;50.928;6.856;2022-09-01T00:03:17;6.40;;;2.53;;
5042;SDS011;2540;50.928;6.856;2022-09-01T00:05:43;2.53;;;2.30;;
5042;SDS011;2540;50.928;6.856;2022-09-01T00:08:10;2.67;;;2.47;;
5042;SDS011;2540;50.928;6.856;2022-09-01T00:10:35;3.47;;;2.00;;
5042;SDS011;2540;50.928;6.856;2022-09-01T00:13:00;2.27;;;2.07;;
5042;SDS011;2540;50.928;6.856;2022-09-01T00:15:26;3.03;;;2.00;;
5042;SDS011;2540;50.928;6.856;2022-09-01T00:17:51;2.97;;;2.40;;
5042;SDS011;2540;50.928;6.856;2022-09-01T00:20:17;2.30;;;2.00;;
5042;SDS011;2540;50.928;6.856;2022-09-01T00:22:42;2.40;;;2.20;;
5042;SDS011;2540;50.928;6.856;2022-09-01T00:25:07;3.27;;;2.20;;
5042;SDS011;2540;50.928;6.856;2022-09-01T00:27:33;1.83;;;1.73;;
5042;SDS011;2540;50.928;6.856;2022-09-01T00:29:58;2.77;;;2.13;;
5042;SDS011;2540;50.928;6.856;2022-09-01T00:32:24;4.80;;;2.20;;
5042;SDS011;2540;50.928;6.856;2022-09-01T00:34:49;8.93;;;2.63;;
5042;SDS011;2540;50.928;6.856;2022-09-01T00:37:15;2.63;;;1.90;;
5042;SDS011;2540;50.928;6.856;2022-09-01T00:39:40;2.17;;;1.97;;
5042;SDS011;2540;50.928;6.856;2022-09-01T00:42:06;3.07;;;2.17;;
5042;SDS011;2540;50.928;6.856;2022-09-01T00:44:31;1.93;;;1.83;;
5042;SDS011;2540;50.928;6.856;2022-09-01T00:46:57;8.57;;;2.10;;
5042;SDS011;2540;50.928;6.856;2022-09-01T00:49:25;3.20;;;2.30;;
5042;SDS011;2540;50.928;6.856;2022-09-01T00:51:55;4.20;;;2.10;;
5042;SDS011;2540;50.928;6.856;2022-09-01T00:54:22;4.20;;;2.40;;
5042;SDS011;2540;50.928;6.856;2022-09-01T00:56:49;8.40;;;2.43;;
5042;SDS011;2540;50.928;6.856;2022-09-01T00:59:15;3.33;;;2.30;;
5042;SDS011;2540;50.928;6.856;2022-09-01T01:01:41;2.83;;;2.47;;
5042;SDS011;2540;50.928;6.856;2022-09-01T01:04:07;6.90;;;2.43;;
5042;SDS011;2540;50.928;6.856;2022-09-01T01:06:46;2.50;;;2.00;;
5042;SDS011;2540;50.928;6.856;2022-09-01T01:09:16;4.57;;;2.63;;
5042;SDS011;2540;50.928;6.856;2022-09-01T01:11:42;5.50;;;2.20;;
5042;SDS011;2540;50.928;6.856;2022-09-01T01:14:11;2.80;;;2.07;;
5042;SDS011;2540;50.928;6.856;2022-09-01T01:16:41;2.93;;;2.50;;
5042;SDS011;2540;50.928;6.856;2022-09-01T01:19:08;2.80;;;2.50;;
5042;SDS011;2540;50.928;6.856;2022-09-01T01:21:55;5.90;;;2.13;;
5042;SDS011;2540;50.928;6.856;2022-09-01T01:24:39;2.13;;;1.90;;
5042;SDS011;2540;50.928;6.856;2022-09-01T01:27:04;2.03;;;1.93;;
5042;SDS011;2540;50.928;6.856;2022-09-01T01:29:31;2.20;;;2.00;;
5042;SDS011;2540;50.928;6.856;2022-09-01T01:31:57;5.00;;;2.30;;
5042;SDS011;2540;50.928;6.856;2022-09-01T01:34:22;2.23;;;2.03;;
5042;SDS011;2540;50.928;6.856;2022-09-01T01:36:48;2.47;;;2.13;;
5042;SDS011;2540;50.928;6.856;2022-09-01T01:39:18;3.13;;;2.70;;
5042;SDS011;2540;50.928;6.856;2022-09-01T01:41:45;2.57;;;2.37;;
5042;SDS011;2540;50.928;6.856;2022-09-01T01:44:13;3.17;;;2.20;;
5042;SDS011;2540;50.928;6.856;2022-09-01T01:46:40;2.67;;;2.20;;
5042;SDS011;2540;50.928;6.856;2022-09-01T01:49:07;4.03;;;2.07;;
5042;SDS011;2540;50.928;6.856;2022-09-01T01:51:32;3.50;;;2.20;;
5042;SDS011;2540;50.928;6.856;2022-09-01T01:53:58;4.03;;;2.60;;
5042;SDS011;2540;50.928;6.856;2022-09-01T01:56:27;2.50;;;2.20;;
5042;SDS011;2540;50.928;6.856;2022-09-01T01:58:52;2.33;;;2.13;;
5042;SDS011;2540;50.928;6.856;2022-09-01T02:01:24;2.30;;;2.10;;
5042;SDS011;2540;50.928;6.856;2022-09-01T02:03:50;3.20;;;2.73;;
5042;SDS011;2540;50.928;6.856;2022-09-01T02:06:18;5.37;;;2.97;;
5042;SDS011;2540;50.928;6.856;2022-09-01T02:08:45;2.77;;;2.53;;
5042;SDS011;2540;50.928;6.856;2022-09-01T02:11:10;4.73;;;3.03;;
5042;SDS011;2540;50.928;6.856;2022-09-01T02:13:37;3.60;;;2.80;;
5042;SDS011;2540;50.928;6.856;2022-09-01T02:16:04;3.00;;;2.50;;
5042;SDS011;2540;50.928;6.856;2022-09-01T02:18:35;4.50;;;2.80;;
5042;SDS011;2540;50.928;6.856;2022-09-01T02:21:02;3.43;;;2.60;;
5042;SDS011;2540;50.928;6.856;2022-09-01T02:23:32;3.63;;;2.70;;
5042;SDS011;2540;50.928;6.856;2022-09-01T02:25:58;3.13;;;2.33;;
5042;SDS011;2540;50.928;6.856;2022-09-01T02:28:27;3.17;;;2.03;;
5042;SDS011;2540;50.928;6.856;2022-09-01T02:30:55;4.60;;;2.30;;
5042;SDS011;2540;50.928;6.856;2022-09-01T02:33:21;2.37;;;2.17;;
5042;SDS011;2540;50.928;6.856;2022-09-01T02:35:48;3.43;;;2.77;;
5042;SDS011;2540;50.928;6.856;2022-09-01T02:38:13;2.70;;;2.50;;
5042;SDS011;2540;50.928;6.856;2022-09-01T02:40:39;4.87;;;2.70;;
5042;SDS011;2540;50.928;6.856;2022-09-01T02:43:05;1.83;;;1.73;;
5042;SDS011;2540;50.928;6.856;2022-09-01T02:45:30;4.50;;;2.27;;
5042;SDS011;2540;50.928;6.856;2022-09-01T02:47:56;2.80;;;2.20;;
5042;SDS011;2540;50.928;6.856;2022-09-01T02:50:23;7.50;;;2.10;;
5042;SDS011;2540;50.928;6.856;2022-09-01T02:52:49;3.03;;;2.63;;
5042;SDS011;2540;50.928;6.856;2022-09-01T02:55:16;3.20;;;2.37;;
5042;SDS011;2540;50.928;6.856;2022-09-01T02:57:44;8.07;;;2.90;;
5042;SDS011;2540;50.928;6.856;2022-09-01T03:00:11;5.40;;;2.23;;
5042;SDS011;2540;50.928;6.856;2022-09-01T03:02:46;3.50;;;3.10;;
5042;SDS011;2540;50.928;6.856;2022-09-01T03:05:11;3.00;;;2.40;;
5042;SDS011;2540;50.928;6.856;2022-09-01T03:07:36;3.80;;;3.03;;
5042;SDS011;2540;50.928;6.856;2022-09-01T03:10:01;4.23;;;2.90;;
5042;SDS011;2540;50.928;6.856;2022-09-01T03:12:27;2.57;;;2.20;;
5042;SDS011;2540;50.928;6.856;2022-09-01T03:14:52;3.00;;;2.70;;
5042;SDS011;2540;50.928;6.856;2022-09-01T03:17:17;2.97;;;2.57;;
5042;SDS011;2540;50.928;6.856;2022-09-01T03:19:42;3.33;;;2.40;;
5042;SDS011;2540;50.928;6.856;2022-09-01T03:22:09;3.90;;;3.10;;
5042;SDS011;2540;50.928;6.856;2022-09-01T03:24:34;2.57;;;2.37;;
5042;SDS011;2540;50.928;6.856;2022-09-01T03:27:00;3.77;;;2.80;;
5042;SDS011;2540;50.928;6.856;2022-09-01T03:29:25;4.63;;;3.10;;
5042;SDS011;2540;50.928;6.856;2022-09-01T03:31:50;3.10;;;2.60;;
5042;SDS011;2540;50.928;6.856;2022-09-01T03:34:15;2.87;;;2.53;;
5042;SDS011;2540;50.928;6.856;2022-09-01T03:36:42;5.67;;;2.90;;
5042;SDS011;2540;50.928;6.856;2022-09-01T03:39:14;4.20;;;3.00;;
5042;SDS011;2540;50.928;6.856;2022-09-01T03:41:39;6.17;;;2.80;;
5042;SDS011;2540;50.928;6.856;2022-09-01T03:44:05;4.67;;;3.90;;
5042;SDS011;2540;50.928;6.856;2022-09-01T03:46:31;5.20;;;2.73;;
5042;SDS011;2540;50.928;6.856;2022-09-01T03:48:57;4.37;;;3.00;;
5042;SDS011;2540;50.928;6.856;2022-09-01T03:51:25;3.30;;;3.00;;
5042;SDS011;2540;50.928;6.856;2022-09-01T03:53:51;5.20;;;3.37;;
5042;SDS011;2540;50.928;6.856;2022-09-01T03:56:18;3.87;;;2.73;;
5042;SDS011;2540;50.928;6.856;2022-09-01T03:58:43;5.67;;;3.10;;
5042;SDS011;2540;50.928;6.856;2022-09-01T04:01:10;3.43;;;3.03;;
5042;SDS011;2540;50.928;6.856;2022-09-01T04:03:36;9.70;;;3.57;;
5042;SDS011;2540;50.928;6.856;2022-09-01T04:06:02;3.03;;;2.70;;
5042;SDS011;2540;50.928;6.856;2022-09-01T04:08:27;4.50;;;3.37;;
5042;SDS011;2540;50.928;6.856;2022-09-01T04:10:56;4.63;;;3.40;;
5042;SDS011;2540;50.928;6.856;2022-09-01T04:13:25;4.00;;;3.27;;
5042;SDS011;2540;50.928;6.856;2022-09-01T04:15:51;4.57;;;3.17;;
5042;SDS011;2540;50.928;6.856;2022-09-01T04:18:17;4.50;;;3.40;;
5042;SDS011;2540;50.928;6.856;2022-09-01T04:20:52;4.43;;;3.33;;
5042;SDS011;2540;50.928;6.856;2022-09-01T04:23:22;4.43;;;3.47;;
5042;SDS011;2540;50.928;6.856;2022-09-01T04:25:57;3.97;;;3.13;;
5042;SDS011;2540;50.928;6.856;2022-09-01T04:28:24;3.80;;;3.40;;
5042;SDS011;2540;50.928;6.856;2022-09-01T04:30:54;5.20;;;4.37;;
5042;SDS011;2540;50.928;6.856;2022-09-01T04:33:20;4.30;;;2.83;;
5042;SDS011;2540;50.928;6.856;2022-09-01T04:35:46;5.30;;;3.67;;
5042;SDS011;2540;50.928;6.856;2022-09-01T04:38:12;5.60;;;3.40;;
5042;SDS011;2540;50.928;6.856;2022-09-01T04:40:39;4.43;;;2.67;;
5042;SDS011;2540;50.928;6.856;2022-09-01T04:43:05;10.37;;;2.87;;
5042;SDS011;2540;50.928;6.856;2022-09-01T04:45:30;3.27;;;2.97;;
5042;SDS011;2540;50.928;6.856;2022-09-01T04:47:56;5.77;;;3.37;;
5042;SDS011;2540;50.928;6.856;2022-09-01T04:50:23;4.30;;;3.30;;
5042;SDS011;2540;50.928;6.856;2022-09-01T04:52:50;15.83;;;3.73;;
5042;SDS011;2540;50.928;6.856;2022-09-01T04:55:15;4.90;;;3.43;;
5042;SDS011;2540;50.928;6.856;2022-09-01T04:57:47;6.83;;;3.63;;
5042;SDS011;2540;50.928;6.856;2022-09-01T05:00:17;8.43;;;2.63;;
5042;SDS011;2540;50.928;6.856;2022-09-01T05:02:57;4.13;;;3.13;;
5042;SDS011;2540;50.928;6.856;2022-09-01T05:05:27;4.53;;;2.63;;
5042;SDS011;2540;50.928;6.856;2022-09-01T05:07:53;6.10;;;2.80;;
5042;SDS011;2540;50.928;6.856;2022-09-01T05:10:19;4.17;;;3.07;;
5042;SDS011;2540;50.928;6.856;2022-09-01T05:12:45;4.60;;;2.90;;
5042;SDS011;2540;50.928;6.856;2022-09-01T05:15:11;4.10;;;3.00;;
5042;SDS011;2540;50.928;6.856;2022-09-01T05:17:37;4.77;;;3.10;;
5042;SDS011;2540;50.928;6.856;2022-09-01T05:20:03;9.27;;;2.90;;
5042;SDS011;2540;50.928;6.856;2022-09-01T05:22:28;3.50;;;2.97;;
5042;SDS011;2540;50.928;6.856;2022-09-01T05:24:55;3.23;;;2.93;;
5042;SDS011;2540;50.928;6.856;2022-09-01T05:27:20;3.60;;;3.00;;
5042;SDS011;2540;50.928;6.856;2022-09-01T05:29:46;3.50;;;2.53;;
5042;SDS011;2540;50.928;6.856;2022-09-01T05:32:13;4.03;;;2.80;;
5042;SDS011;2540;50.928;6.856;2022-09-01T05:34:39;3.80;;;2.93;;
5042;SDS011;2540;50.928;6.856;2022-09-01T05:37:05;3.87;;;2.80;;
5042;SDS011;2540;50.928;6.856;2022-09-01T05:39:32;4.77;;;3.07;;
5042;SDS011;2540;50.928;6.856;2022-09-01T05:41:58;3.17;;;2.87;;
5042;SDS011;2540;50.928;6.856;2022-09-01T05:44:23;2.90;;;2.70;;
5042;SDS011;2540;50.928;6.856;2022-09-01T05:46:49;5.67;;;2.97;;
5042;SDS011;2540;50.928;6.856;2022-09-01T05:49:15;3.57;;;2.97;;
5042;SDS011;2540;50.928;6.856;2022-09-01T05:51:43;3.90;;;2.70;;
5042;SDS011;2540;50.928;6.856;2022-09-01T05:54:22;3.73;;;2.40;;
5042;SDS011;2540;50.928;6.856;2022-09-01T05:56:49;3.43;;;2.43;;
5042;SDS011;2540;50.928;6.856;2022-09-01T05:59:14;3.40;;;2.87;;
5042;SDS011;2540;50.928;6.856;2022-09-01T06:01:40;2.90;;;2.70;;
5042;SDS011;2540;50.928;6.856;2022-09-01T06:04:06;3.00;;;2.40;;
5042;SDS011;2540;50.928;6.856;2022-09-01T06:06:42;3.90;;;2.80;;
5042;SDS011;2540;50.928;6.856;2022-09-01T06:09:10;3.60;;;2.73;;
5042;SDS011;2540;50.928;6.856;2022-09-01T06:11:36;3.43;;;2.57;;
5042;SDS011;2540;50.928;6.856;2022-09-01T06:14:01;3.03;;;2.63;;
5042;SDS011;2540;50.928;6.856;2022-09-01T06:16:27;2.70;;;2.43;;
5042;SDS011;2540;50.928;6.856;2022-09-01T06:18:53;3.50;;;2.70;;
5042;SDS011;2540;50.928;6.856;2022-09-01T06:21:19;3.60;;;2.37;;
5042;SDS011;2540;50.928;6.856;2022-09-01T06:23:45;4.47;;;2.43;;
5042;SDS011;2540;50.928;6.856;2022-09-01T06:26:30;4.10;;;2.20;;
5042;SDS011;2540;50.928;6.856;2022-09-01T06:29:00;3.60;;;2.57;;
5042;SDS011;2540;50.928;6.856;2022-09-01T06:31:28;2.93;;;2.17;;
5042;SDS011;2540;50.928;6.856;2022-09-01T06:33:58;3.97;;;2.30;;
5042;SDS011;2540;50.928;6.856;2022-09-01T06:36:24;6.10;;;2.80;;
5042;SDS011;2540;50.928;6.856;2022-09-01T06:38:50;2.63;;;1.87;;
5042;SDS011;2540;50.928;6.856;2022-09-01T06:41:16;2.53;;;2.10;;
5042;SDS011;2540;50.928;6.856;2022-09-01T06:43:44;5.83;;;2.77;;
5042;SDS011;2540;50.928;6.856;2022-09-01T06:46:10;8.13;;;2.27;;
5042;SDS011;2540;50.928;6.856;2022-09-01T06:48:36;4.67;;;2.10;;
5042;SDS011;2540;50.928;6.856;2022-09-01T06:51:04;4.73;;;2.30;;
5042;SDS011;2540;50.928;6.856;2022-09-01T06:53:29;8.13;;;2.50;;
5042;SDS011;2540;50.928;6.856;2022-09-01T06:55:56;3.70;;;2.20;;
5042;SDS011;2540;50.928;6.856;2022-09-01T06:58:21;6.07;;;2.10;;
5042;SDS011;2540;50.928;6.856;2022-09-01T07:00:53;2.40;;;1.70;;
5042;SDS011;2540;50.928;6.856;2022-09-01T07:03:18;2.40;;;1.70;;
5042;SDS011;2540;50.928;6.856;2022-09-01T07:05:44;7.70;;;2.03;;
5042;SDS011;2540;50.928;6.856;2022-09-01T07:08:11;4.67;;;1.67;;
5042;SDS011;2540;50.928;6.856;2022-09-01T07:10:42;1.80;;;1.60;;
5042;SDS011;2540;50.928;6.856;2022-09-01T07:13:09;2.93;;;1.60;;
5042;SDS011;2540;50.928;6.856;2022-09-01T07:15:38;3.60;;;1.87;;
5042;SDS011;2540;50.928;6.856;2022-09-01T07:18:04;2.67;;;1.50;;
5042;SDS011;2540;50.928;6.856;2022-09-01T07:20:30;2.83;;;1.53;;
5042;SDS011;2540;50.928;6.856;2022-09-01T07:23:02;2.60;;;1.67;;
5042;SDS011;2540;50.928;6.856;2022-09-01T07:25:28;4.73;;;1.50;;
5042;SDS011;2540;50.928;6.856;2022-09-01T07:27:53;2.80;;;2.07;;
5042;SDS011;2540;50.928;6.856;2022-09-01T07:30:19;2.63;;;1.43;;
5042;SDS011;2540;50.928;6.856;2022-09-01T07:32:45;3.37;;;1.63;;
5042;SDS011;2540;50.928;6.856;2022-09-01T07:35:12;3.13;;;1.87;;
5042;SDS011;2540;50.928;6.856;2022-09-01T07:37:38;1.83;;;1.60;;
5042;SDS011;2540;50.928;6.856;2022-09-01T07:40:07;1.93;;;1.40;;
5042;SDS011;2540;50.928;6.856;2022-09-01T07:42:33;2.60;;;1.77;;
5042;SDS011;2540;50.928;6.856;2022-09-01T07:44:58;2.23;;;1.60;;
5042;SDS011;2540;50.928;6.856;2022-09-01T07:47:24;2.60;;;1.57;;
5042;SDS011;2540;50.928;6.856;2022-09-01T07:49:49;3.67;;;2.00;;
5042;SDS011;2540;50.928;6.856;2022-09-01T07:52:14;1.77;;;1.30;;
5042;SDS011;2540;50.928;6.856;2022-09-01T07:54:40;1.97;;;1.70;;
5042;SDS011;2540;50.928;6.856;2022-09-01T07:57:05;1.97;;;1.40;;
5042;SDS011;2540;50.928;6.856;2022-09-01T07:59:30;2.20;;;1.20;;
5042;SDS011;2540;50.928;6.856;2022-09-01T08:01:57;1.47;;;1.37;;
5042;SDS011;2540;50.928;6.856;2022-09-01T08:04:22;2.10;;;1.53;;
5042;SDS011;2540;50.928;6.856;2022-09-01T08:06:48;3.43;;;1.73;;
5042;SDS011;2540;50.928;6.856;2022-09-01T08:09:13;5.20;;;1.80;;
5042;SDS011;2540;50.928;6.856;2022-09-01T08:11:38;3.67;;;1.50;;
5042;SDS011;2540;50.928;6.856;2022-09-01T08:14:04;1.73;;;1.37;;
5042;SDS011;2540;50.928;6.856;2022-09-01T08:16:29;2.53;;;1.47;;
5042;SDS011;2540;50.928;6.856;2022-09-01T08:18:55;2.47;;;1.73;;
5042;SDS011;2540;50.928;6.856;2022-09-01T08:21:21;2.57;;;1.20;;
5042;SDS011;2540;50.928;6.856;2022-09-01T08:23:47;4.70;;;1.63;;
5042;SDS011;2540;50.928;6.856;2022-09-01T08:26:13;2.10;;;1.57;;
5042;SDS011;2540;50.928;6.856;2022-09-01T08:28:39;2.43;;;1.77;;
5042;SDS011;2540;50.928;6.856;2022-09-01T08:31:08;1.50;;;1.40;;
5042;SDS011;2540;50.928;6.856;2022-09-01T08:33:34;4.90;;;1.77;;
5042;SDS011;2540;50.928;6.856;2022-09-01T08:36:00;4.73;;;1.97;;
5042;SDS011;2540;50.928;6.856;2022-09-01T08:38:25;3.57;;;1.40;;
5042;SDS011;2540;50.928;6.856;2022-09-01T08:40:53;2.47;;;1.33;;
5042;SDS011;2540;50.928;6.856;2022-09-01T08:48:17;2.40;;;1.65;;
5042;SDS011;2540;50.928;6.856;2022-09-01T08:50:43;6.17;;;1.87;;
5042;SDS011;2540;50.928;6.856;2022-09-01T08:55:44;3.00;;;1.67;;
5042;SDS011;2540;50.928;6.856;2022-09-01T08:58:12;1.77;;;1.60;;
5042;SDS011;2540;50.928;6.856;2022-09-01T09:00:41;3.87;;;1.60;;
5042;SDS011;2540;50.928;6.856;2022-09-01T09:11:15;1.50;;;1.40;;
5042;SDS011;2540;50.928;6.856;2022-09-01T09:16:01;1.70;;;1.13;;
5042;SDS011;2540;50.928;6.856;2022-09-01T09:18:31;4.80;;;1.30;;
5042;SDS011;2540;50.928;6.856;2022-09-01T09:21:01;3.80;;;1.93;;
5042;SDS011;2540;50.928;6.856;2022-09-01T09:23:32;3.33;;;1.97;;
5042;SDS011;2540;50.928;6.856;2022-09-01T09:25:58;4.10;;;1.90;;
5042;SDS011;2540;50.928;6.856;2022-09-01T09:28:23;2.30;;;1.40;;
5042;SDS011;2540;50.928;6.856;2022-09-01T09:30:48;1.40;;;1.30;;
5042;SDS011;2540;50.928;6.856;2022-09-01T09:33:31;5.73;;;1.50;;
5042;SDS011;2540;50.928;6.856;2022-09-01T09:36:14;2.10;;;1.50;;
5042;SDS011;2540;50.928;6.856;2022-09-01T09:38:40;4.30;;;1.47;;
5042;SDS011;2540;50.928;6.856;2022-09-01T09:43:45;3.03;;;1.40;;
5042;SDS011;2540;50.928;6.856;2022-09-01T09:48:46;2.67;;;1.40;;
5042;SDS011;2540;50.928;6.856;2022-09-01T09:51:16;3.60;;;1.30;;
5042;SDS011;2540;50.928;6.856;2022-09-01T09:53:42;1.87;;;1.13;;
5042;SDS011;2540;50.928;6.856;2022-09-01T09:56:17;1.30;;;1.17;;
5042;SDS011;2540;50.928;6.856;2022-09-01T09:58:43;3.63;;;1.43;;
5042;SDS011;2540;50.928;6.856;2022-09-01T10:03:49;4.00;;;1.63;;
5042;SDS011;2540;50.928;6.856;2022-09-01T10:06:28;1.63;;;1.00;;
5042;SDS011;2540;50.928;6.856;2022-09-01T10:08:54;2.50;;;1.30;;
5042;SDS011;2540;50.928;6.856;2022-09-01T10:11:35;2.53;;;1.67;;
5042;SDS011;2540;50.928;6.856;2022-09-01T10:14:03;3.83;;;1.43;;
5042;SDS011;2540;50.928;6.856;2022-09-01T10:16:30;4.03;;;1.17;;
5042;SDS011;2540;50.928;6.856;2022-09-01T10:18:57;3.70;;;1.57;;
5042;SDS011;2540;50.928;6.856;2022-09-01T10:21:33;1.83;;;1.27;;
5042;SDS011;2540;50.928;6.856;2022-09-01T10:23:59;1.23;;;1.07;;
5042;SDS011;2540;50.928;6.856;2022-09-01T10:29:00;3.80;;;1.73;;
5042;SDS011;2540;50.928;6.856;2022-09-01T10:31:28;1.80;;;1.30;;
5042;SDS011;2540;50.928;6.856;2022-09-01T10:33:54;1.83;;;1.30;;
5042;SDS011;2540;50.928;6.856;2022-09-01T10:36:19;4.53;;;1.10;;
5042;SDS011;2540;50.928;6.856;2022-09-01T10:38:46;2.37;;;1.30;;
5042;SDS011;2540;50.928;6.856;2022-09-01T10:41:41;2.47;;;1.40;;
5042;SDS011;2540;50.928;6.856;2022-09-01T10:44:06;3.60;;;1.60;;
5042;SDS011;2540;50.928;6.856;2022-09-01T10:48:57;3.57;;;1.50;;
5042;SDS011;2540;50.928;6.856;2022-09-01T10:53:54;2.33;;;1.50;;
5042;SDS011;2540;50.928;6.856;2022-09-01T10:56:40;2.20;;;1.77;;
5042;SDS011;2540;50.928;6.856;2022-09-01T11:04:13;6.70;;;1.60;;
5042;SDS011;2540;50.928;6.856;2022-09-01T11:09:22;1.30;;;1.20;;
5042;SDS011;2540;50.928;6.856;2022-09-01T11:14:34;5.40;;;1.60;;
5042;SDS011;2540;50.928;6.856;2022-09-01T11:27:09;1.90;;;1.47;;
5042;SDS011;2540;50.928;6.856;2022-09-01T11:32:19;1.93;;;1.70;;
5042;SDS011;2540;50.928;6.856;2022-09-01T11:34:45;2.17;;;1.73;;
5042;SDS011;2540;50.928;6.856;2022-09-01T11:37:14;1.77;;;1.67;;
5042;SDS011;2540;50.928;6.856;2022-09-01T11:39:50;3.50;;;1.67;;
5042;SDS011;2540;50.928;6.856;2022-09-01T11:42:23;1.77;;;1.50;;
5042;SDS011;2540;50.928;6.856;2022-09-01T11:44:53;1.67;;;1.47;;
5042;SDS011;2540;50.928;6.856;2022-09-01T11:49:51;4.70;;;1.77;;
5042;SDS011;2540;50.928;6.856;2022-09-01T11:52:19;3.17;;;1.63;;
5042;SDS011;2540;50.928;6.856;2022-09-01T11:54:45;3.90;;;1.50;;
5042;SDS011;2540;50.928;6.856;2022-09-01T11:57:25;7.57;;;1.80;;
5042;SDS011;2540;50.928;6.856;2022-09-01T11:59:50;2.33;;;1.70;;
5042;SDS011;2540;50.928;6.856;2022-09-01T12:02:17;2.80;;;1.87;;
5042;SDS011;2540;50.928;6.856;2022-09-01T12:04:42;1.70;;;1.60;;
5042;SDS011;2540;50.928;6.856;2022-09-01T12:07:10;4.80;;;1.73;;
5042;SDS011;2540;50.928;6.856;2022-09-01T12:09:44;1.60;;;1.50;;
5042;SDS011;2540;50.928;6.856;2022-09-01T12:12:31;2.57;;;1.83;;
5042;SDS011;2540;50.928;6.856;2022-09-01T12:17:40;2.23;;;1.57;;
5042;SDS011;2540;50.928;6.856;2022-09-01T12:22:43;2.20;;;1.90;;
5042;SDS011;2540;50.928;6.856;2022-09-01T12:25:13;2.27;;;1.93;;
5042;SDS011;2540;50.928;6.856;2022-09-01T12:27:42;2.17;;;1.97;;
5042;SDS011;2540;50.928;6.856;2022-09-01T12:30:07;3.70;;;2.20;;
5042;SDS011;2540;50.928;6.856;2022-09-01T12:32:33;1.90;;;1.80;;
5042;SDS011;2540;50.928;6.856;2022-09-01T12:35:14;4.07;;;2.07;;
5042;SDS011;2540;50.928;6.856;2022-09-01T12:37:42;2.00;;;1.77;;
5042;SDS011;2540;50.928;6.856;2022-09-01T12:40:16;1.90;;;1.63;;
5042;SDS011;2540;50.928;6.856;2022-09-01T12:42:48;4.33;;;1.70;;
5042;SDS011;2540;50.928;6.856;2022-09-01T12:45:14;2.17;;;1.97;;
5042;SDS011;2540;50.928;6.856;2022-09-01T12:47:59;5.80;;;2.00;;
5042;SDS011;2540;50.928;6.856;2022-09-01T12:52:51;2.87;;;2.00;;
5042;SDS011;2540;50.928;6.856;2022-09-01T12:55:19;2.50;;;1.90;;
5042;SDS011;2540;50.928;6.856;2022-09-01T12:57:47;2.23;;;2.00;;
5042;SDS011;2540;50.928;6.856;2022-09-01T13:00:34;2.20;;;2.00;;
5042;SDS011;2540;50.928;6.856;2022-09-01T13:05:32;2.30;;;2.10;;
5042;SDS011;2540;50.928;6.856;2022-09-01T13:07:59;2.70;;;2.00;;
5042;SDS011;2540;50.928;6.856;2022-09-01T13:10:25;4.30;;;2.03;;
5042;SDS011;2540;50.928;6.856;2022-09-01T13:12:52;2.73;;;2.40;;
5042;SDS011;2540;50.928;6.856;2022-09-01T13:15:18;6.40;;;2.60;;
5042;SDS011;2540;50.928;6.856;2022-09-01T13:17:43;2.80;;;2.00;;
5042;SDS011;2540;50.928;6.856;2022-09-01T13:20:08;2.40;;;2.20;;
5042;SDS011;2540;50.928;6.856;2022-09-01T13:22:35;2.40;;;1.97;;
5042;SDS011;2540;50.928;6.856;2022-09-01T13:25:01;5.70;;;2.17;;
5042;SDS011;2540;50.928;6.856;2022-09-01T13:27:26;2.37;;;2.10;;
5042;SDS011;2540;50.928;6.856;2022-09-01T13:29:52;3.20;;;2.50;;
5042;SDS011;2540;50.928;6.856;2022-09-01T13:32:17;2.57;;;2.20;;
5042;SDS011;2540;50.928;6.856;2022-09-01T13:34:43;2.77;;;2.07;;
5042;SDS011;2540;50.928;6.856;2022-09-01T13:37:08;2.50;;;2.30;;
5042;SDS011;2540;50.928;6.856;2022-09-01T13:39:33;2.47;;;2.27;;
5042;SDS011;2540;50.928;6.856;2022-09-01T13:41:58;2.43;;;2.00;;
5042;SDS011;2540;50.928;6.856;2022-09-01T13:44:23;2.00;;;1.90;;
5042;SDS011;2540;50.928;6.856;2022-09-01T13:46:49;2.33;;;1.93;;
5042;SDS011;2540;50.928;6.856;2022-09-01T13:49:14;2.50;;;2.27;;
5042;SDS011;2540;50.928;6.856;2022-09-01T13:51:40;3.53;;;2.70;;
5042;SDS011;2540;50.928;6.856;2022-09-01T13:54:05;3.00;;;2.17;;
5042;SDS011;2540;50.928;6.856;2022-09-01T13:56:30;2.70;;;2.13;;
5042;SDS011;2540;50.928;6.856;2022-09-01T13:58:55;9.03;;;2.47;;
5042;SDS011;2540;50.928;6.856;2022-09-01T14:01:21;3.93;;;2.80;;
5042;SDS011;2540;50.928;6.856;2022-09-01T14:03:47;3.43;;;2.20;;
5042;SDS011;2540;50.928;6.856;2022-09-01T14:06:12;6.47;;;2.40;;
5042;SDS011;2540;50.928;6.856;2022-09-01T14:08:38;4.33;;;2.53;;
5042;SDS011;2540;50.928;6.856;2022-09-01T14:11:03;3.83;;;2.50;;
5042;SDS011;2540;50.928;6.856;2022-09-01T14:13:28;2.70;;;2.13;;
5042;SDS011;2540;50.928;6.856;2022-09-01T14:15:55;3.90;;;2.40;;
5042;SDS011;2540;50.928;6.856;2022-09-01T14:18:20;3.20;;;2.53;;
5042;SDS011;2540;50.928;6.856;2022-09-01T14:20:46;3.20;;;2.30;;
5042;SDS011;2540;50.928;6.856;2022-09-01T14:23:12;2.77;;;2.40;;
5042;SDS011;2540;50.928;6.856;2022-09-01T14:25:41;2.70;;;2.40;;
5042;SDS011;2540;50.928;6.856;2022-09-01T14:28:06;7.97;;;2.40;;
5042;SDS011;2540;50.928;6.856;2022-09-01T14:30:31;2.97;;;2.53;;
5042;SDS011;2540;50.928;6.856;2022-09-01T14:32:58;2.97;;;2.50;;
5042;SDS011;2540;50.928;6.856;2022-09-01T14:35:23;5.60;;;2.47;;
5042;SDS011;2540;50.928;6.856;2022-09-01T14:37:49;2.77;;;2.23;;
5042;SDS011;2540;50.928;6.856;2022-09-01T14:40:15;2.73;;;2.30;;
5042;SDS011;2540;50.928;6.856;2022-09-01T14:42:41;4.53;;;2.27;;
5042;SDS011;2540;50.928;6.856;2022-09-01T14:45:08;2.30;;;2.10;;
5042;SDS011;2540;50.928;6.856;2022-09-01T14:47:35;3.03;;;2.50;;
5042;SDS011;2540;50.928;6.856;2022-09-01T14:50:00;2.50;;;1.97;;
5042;SDS011;2540;50.928;6.856;2022-09-01T14:52:25;4.63;;;2.40;;
5042;SDS011;2540;50.928;6.856;2022-09-01T14:54:51;3.13;;;1.93;;
5042;SDS011;2540;50.928;6.856;2022-09-01T14:57:16;3.23;;;2.10;;
5042;SDS011;2540;50.928;6.856;2022-09-01T14:59:41;4.23;;;2.50;;
5042;SDS011;2540;50.928;6.856;2022-09-01T15:02:07;2.57;;;2.30;;
5042;SDS011;2540;50.928;6.856;2022-09-01T15:04:32;2.60;;;2.33;;
5042;SDS011;2540;50.928;6.856;2022-09-01T15:06:57;3.90;;;2.70;;
5042;SDS011;2540;50.928;6.856;2022-09-01T15:09:23;2.50;;;2.30;;
5042;SDS011;2540;50.928;6.856;2022-09-01T15:11:48;2.73;;;2.53;;
5042;SDS011;2540;50.928;6.856;2022-09-01T15:14:13;3.03;;;2.40;;
5042;SDS011;2540;50.928;6.856;2022-09-01T15:16:39;2.57;;;2.37;;
5042;SDS011;2540;50.928;6.856;2022-09-01T15:19:09;2.60;;;2.40;;
5042;SDS011;2540;50.928;6.856;2022-09-01T15:21:37;2.40;;;2.20;;
5042;SDS011;2540;50.928;6.856;2022-09-01T15:24:03;2.17;;;1.97;;
5042;SDS011;2540;50.928;6.856;2022-09-01T15:26:29;2.50;;;2.30;;
5042;SDS011;2540;50.928;6.856;2022-09-01T15:28:55;4.63;;;2.33;;
5042;SDS011;2540;50.928;6.856;2022-09-01T15:31:21;3.20;;;2.30;;
5042;SDS011;2540;50.928;6.856;2022-09-01T15:33:48;4.73;;;2.47;;
5042;SDS011;2540;50.928;6.856;2022-09-01T15:36:17;3.43;;;2.50;;
5042;SDS011;2540;50.928;6.856;2022-09-01T15:38:43;9.83;;;2.67;;
5042;SDS011;2540;50.928;6.856;2022-09-01T15:41:08;2.90;;;2.37;;
5042;SDS011;2540;50.928;6.856;2022-09-01T15:43:33;2.37;;;2.17;;
5042;SDS011;2540;50.928;6.856;2022-09-01T15:45:59;3.30;;;2.57;;
5042;SDS011;2540;50.928;6.856;2022-09-01T15:48:26;5.23;;;2.57;;
5042;SDS011;2540;50.928;6.856;2022-09-01T15:50:52;2.87;;;2.40;;
5042;SDS011;2540;50.928;6.856;2022-09-01T15:53:18;2.40;;;2.13;;
5042;SDS011;2540;50.928;6.856;2022-09-01T15:55:45;2.20;;;2.00;;
5042;SDS011;2540;50.928;6.856;2022-09-01T15:58:11;3.03;;;2.53;;
5042;SDS011;2540;50.928;6.856;2022-09-01T16:00:37;3.07;;;2.77;;
5042;SDS011;2540;50.928;6.856;2022-09-01T16:03:02;2.20;;;2.00;;
5042;SDS011;2540;50.928;6.856;2022-09-01T16:05:29;2.27;;;2.07;;
5042;SDS011;2540;50.928;6.856;2022-09-01T16:07:54;3.80;;;2.30;;
5042;SDS011;2540;50.928;6.856;2022-09-01T16:10:20;2.90;;;2.10;;
5042;SDS011;2540;50.928;6.856;2022-09-01T16:12:45;2.67;;;2.33;;
5042;SDS011;2540;50.928;6.856;2022-09-01T16:15:13;2.57;;;2.37;;
5042;SDS011;2540;50.928;6.856;2022-09-01T16:20:18;4.07;;;2.50;;
5042;SDS011;2540;50.928;6.856;2022-09-01T16:22:51;2.73;;;2.43;;
5042;SDS011;2540;50.928;6.856;2022-09-01T16:25:18;3.97;;;2.33;;
5042;SDS011;2540;50.928;6.856;2022-09-01T16:27:47;2.53;;;1.93;;